Time;durP1;ratioP1;P1;durP2;ratioP2;P2;SDS_P1;SDS_P2;PMS_P1;PMS_P2;Temp;Humidity;BMP_temperature;BMP_pressure;BME280_temperature;BME280_humidity;BME280_pressure;Samples;Min_cycle;Max_cycle;Signal;HPM_P1;HPM_P2
2021/01/21 00:00:27;;;;;;;16.33;11.23;;;4.20;99.90;;;;;;4952186;29;20893;-25
2021/01/21 00:02:55;;;;;;;12.73;9.17;;;4.10;99.90;;;;;;4954616;29;20957;-25
2021/01/21 00:05:22;;;;;;;13.00;9.60;;;4.10;99.90;;;;;;4953827;29;20466;-25
2021/01/21 00:07:52;;;;;;;15.37;10.90;;;4.10;99.90;;;;;;4954062;29;20468;-25
2021/01/21 00:10:20;;;;;;;13.50;10.87;;;4.20;99.90;;;;;;4953937;29;20465;-25
2021/01/21 00:12:50;;;;;;;12.90;10.60;;;4.20;99.90;;;;;;4955840;29;20908;-25
2021/01/21 00:15:17;;;;;;;12.97;11.57;;;4.20;99.90;;;;;;4954971;29;20462;-25
2021/01/21 00:17:45;;;;;;;16.07;12.27;;;4.10;99.90;;;;;;4954687;29;21008;-25
2021/01/21 00:20:15;;;;;;;17.10;13.90;;;4.10;99.90;;;;;;4954828;29;20549;-25
2021/01/21 00:22:43;;;;;;;17.70;12.50;;;4.10;99.90;;;;;;4937154;29;20619;-25
2021/01/21 00:25:13;;;;;;;13.50;11.27;;;4.20;99.90;;;;;;4958288;29;20462;-25
2021/01/21 00:27:41;;;;;;;15.27;12.10;;;4.30;99.90;;;;;;4955313;29;20450;-25
2021/01/21 00:30:09;;;;;;;10.67;9.57;;;4.30;99.90;;;;;;4953289;29;20577;-25
2021/01/21 00:32:37;;;;;;;10.90;9.80;;;4.30;99.90;;;;;;4953572;29;20442;-25
2021/01/21 00:35:07;;;;;;;10.17;9.17;;;4.30;99.90;;;;;;4952402;29;20472;-25
2021/01/21 00:37:36;;;;;;;12.00;8.70;;;4.30;99.90;;;;;;4954306;29;20482;-25
2021/01/21 00:40:05;;;;;;;11.97;9.27;;;4.30;99.90;;;;;;4930315;29;20498;-25
2021/01/21 00:42:34;;;;;;;9.57;8.07;;;4.30;99.90;;;;;;4933689;29;20455;-25
2021/01/21 00:45:01;;;;;;;8.50;7.70;;;4.30;99.90;;;;;;4934224;29;21057;-26
2021/01/21 00:47:30;;;;;;;13.63;9.50;;;4.30;99.90;;;;;;4934008;29;20491;-25
2021/01/21 00:49:58;;;;;;;13.33;9.50;;;4.30;99.90;;;;;;4935093;29;20439;-25
2021/01/21 00:52:26;;;;;;;10.70;8.50;;;4.20;99.90;;;;;;4934039;29;20498;-25
2021/01/21 00:54:53;;;;;;;10.37;8.80;;;4.20;99.90;;;;;;4933906;29;20502;-25
2021/01/21 00:57:21;;;;;;;12.20;8.10;;;4.20;99.90;;;;;;4933029;29;20491;-25
2021/01/21 00:59:50;;;;;;;9.07;8.13;;;4.10;99.90;;;;;;4934005;29;20443;-25
2021/01/21 01:02:17;;;;;;;12.73;9.00;;;4.10;99.90;;;;;;4935668;29;20844;-25
2021/01/21 01:04:45;;;;;;;10.77;8.77;;;4.00;99.90;;;;;;4935095;29;20462;-25
2021/01/21 01:07:13;;;;;;;10.77;7.83;;;4.00;99.90;;;;;;4934134;29;20472;-25
2021/01/21 01:09:40;;;;;;;10.03;8.37;;;4.00;99.90;;;;;;4916699;29;20465;-25
2021/01/21 01:12:08;;;;;;;11.30;9.43;;;4.10;99.90;;;;;;4916479;29;20463;-25
2021/01/21 01:14:38;;;;;;;9.47;8.47;;;4.10;99.90;;;;;;4933793;29;20458;-25
2021/01/21 01:17:07;;;;;;;10.27;8.40;;;4.10;99.90;;;;;;4933338;29;20479;-25
2021/01/21 01:19:43;;;;;;;11.47;8.47;;;4.10;99.90;;;;;;4932296;29;20451;-25
2021/01/21 01:22:15;;;;;;;11.40;8.20;;;4.10;99.90;;;;;;4917109;29;20522;-25
2021/01/21 01:24:43;;;;;;;11.27;8.67;;;4.20;99.90;;;;;;4931413;29;20462;-25
2021/01/21 01:27:11;;;;;;;10.70;9.47;;;4.10;99.90;;;;;;4932282;29;20467;-25
2021/01/21 01:29:39;;;;;;;20.70;15.10;;;4.10;99.90;;;;;;4932150;29;20454;-25
2021/01/21 01:32:08;;;;;;;12.43;9.53;;;4.20;99.90;;;;;;4915479;29;20463;-25
2021/01/21 01:34:42;;;;;;;8.93;8.03;;;4.20;99.90;;;;;;4944716;29;20945;-25
2021/01/21 01:37:14;;;;;;;16.60;12.90;;;4.30;99.90;;;;;;4952078;29;20541;-25
2021/01/21 01:39:50;;;;;;;16.57;12.77;;;4.30;99.90;;;;;;4934113;29;20455;-25
2021/01/21 01:42:30;;;;;;;11.73;10.10;;;4.30;99.90;;;;;;4954933;29;20921;-25
2021/01/21 01:44:58;;;;;;;16.30;11.37;;;4.30;99.90;;;;;;4943155;29;20438;-25
2021/01/21 01:47:27;;;;;;;9.90;8.93;;;4.30;99.90;;;;;;4949268;29;20617;-25
2021/01/21 01:49:56;;;;;;;14.00;10.17;;;4.40;99.90;;;;;;4957825;29;20549;-25
2021/01/21 01:52:26;;;;;;;12.70;8.97;;;4.40;99.90;;;;;;4957787;28;20489;-25
2021/01/21 01:55:14;;;;;;;9.90;8.90;;;4.40;99.90;;;;;;4952923;28;20465;-25
2021/01/21 01:57:52;;;;;;;10.77;8.83;;;4.40;99.90;;;;;;4952322;29;20457;-25
2021/01/21 02:00:25;;;;;;;12.73;10.10;;;4.40;99.90;;;;;;4936359;29;20895;-25
2021/01/21 02:03:03;;;;;;;10.47;9.43;;;4.40;99.90;;;;;;4952900;28;20474;-25
2021/01/21 02:05:34;;;;;;;12.23;9.50;;;4.40;99.90;;;;;;4952018;29;20588;-25
2021/01/21 02:08:02;;;;;;;11.50;9.43;;;4.40;99.90;;;;;;4949561;28;20461;-25
2021/01/21 02:10:31;;;;;;;11.40;9.13;;;4.40;99.90;;;;;;4953342;29;20477;-25
2021/01/21 02:13:32;;;;;;;9.80;8.80;;;4.40;99.90;;;;;;4950155;28;20489;-25
2021/01/21 02:16:15;;;;;;;8.67;7.40;;;4.40;99.90;;;;;;4951278;29;20606;-25
2021/01/21 02:18:49;;;;;;;10.40;8.67;;;4.40;99.90;;;;;;4952374;29;20445;-25
2021/01/21 02:21:41;;;;;;;10.73;8.00;;;4.40;99.90;;;;;;4950957;29;20458;-25
2021/01/21 02:24:55;;;;;;;9.70;7.83;;;4.40;99.90;;;;;;4951468;29;20480;-25
2021/01/21 02:27:33;;;;;;;7.77;7.00;;;4.30;99.90;;;;;;4950558;29;20853;-25
2021/01/21 02:30:13;;;;;;;10.47;8.03;;;4.30;99.90;;;;;;4951395;29;20469;-25
2021/01/21 02:32:55;;;;;;;8.47;7.73;;;4.40;99.90;;;;;;4950074;29;20553;-25
2021/01/21 02:35:28;;;;;;;8.33;7.53;;;4.30;99.90;;;;;;4951162;29;20453;-25
2021/01/21 02:38:00;;;;;;;8.90;7.97;;;4.40;99.90;;;;;;4951254;29;20513;-25
2021/01/21 02:40:33;;;;;;;10.53;8.83;;;4.50;99.90;;;;;;4946877;28;21040;-25
2021/01/21 02:43:17;;;;;;;12.27;9.80;;;4.50;99.90;;;;;;4950314;29;20457;-25
2021/01/21 02:45:50;;;;;;;14.60;11.53;;;4.50;99.90;;;;;;4934409;29;20487;-25
2021/01/21 02:48:18;;;;;;;11.50;10.20;;;4.50;99.90;;;;;;4934540;29;20935;-25
2021/01/21 02:51:10;;;;;;;16.00;11.53;;;4.50;99.90;;;;;;4933913;29;20458;-25
2021/01/21 02:53:41;;;;;;;16.83;10.40;;;4.40;99.90;;;;;;4951433;29;20458;-25
2021/01/21 02:56:13;;;;;;;15.43;12.13;;;4.40;99.90;;;;;;4949127;29;20845;-25
2021/01/21 02:58:55;;;;;;;13.97;10.80;;;4.40;99.90;;;;;;4935593;29;20453;-25
2021/01/21 03:01:23;;;;;;;15.97;11.43;;;4.30;99.90;;;;;;4952975;29;20473;-25
2021/01/21 03:03:57;;;;;;;11.13;9.70;;;4.30;99.90;;;;;;4932464;29;20498;-25
2021/01/21 03:06:29;;;;;;;11.40;9.93;;;4.30;99.90;;;;;;4952875;29;20474;-25
2021/01/21 03:08:58;;;;;;;14.23;11.87;;;4.30;99.90;;;;;;4933701;29;20875;-25
2021/01/21 03:11:27;;;;;;;13.53;10.50;;;4.40;99.90;;;;;;4954292;28;20453;-25
2021/01/21 03:14:01;;;;;;;11.87;10.40;;;4.40;99.90;;;;;;4953833;29;20452;-25
2021/01/21 03:16:33;;;;;;;16.73;11.43;;;4.40;99.90;;;;;;4939278;29;20468;-25
2021/01/21 03:19:02;;;;;;;13.33;10.40;;;4.30;99.90;;;;;;4956116;28;20476;-25
2021/01/21 03:21:29;;;;;;;11.20;9.93;;;4.40;99.90;;;;;;4954469;29;20464;-25
2021/01/21 03:24:02;;;;;;;11.40;10.20;;;4.50;99.90;;;;;;4938841;29;20863;-25
2021/01/21 03:26:50;;;;;;;13.20;10.53;;;4.50;99.90;;;;;;4953085;29;20478;-25
2021/01/21 03:29:22;;;;;;;19.40;10.57;;;4.50;99.90;;;;;;4954925;29;20441;-25
2021/01/21 03:31:52;;;;;;;12.60;10.33;;;4.50;99.90;;;;;;4955889;28;20762;-25
2021/01/21 03:34:23;;;;;;;11.77;10.07;;;4.60;99.90;;;;;;4954541;28;20525;-25
2021/01/21 03:37:01;;;;;;;10.93;9.93;;;4.60;99.90;;;;;;4938524;29;20458;-25
2021/01/21 03:39:36;;;;;;;13.47;10.80;;;4.70;99.90;;;;;;4957292;29;20482;-25
2021/01/21 03:42:24;;;;;;;12.57;9.77;;;4.80;99.90;;;;;;4956428;29;20495;-25
2021/01/21 03:45:15;;;;;;;11.87;10.67;;;4.80;99.90;;;;;;4954880;29;20966;-25
2021/01/21 03:47:43;;;;;;;12.33;9.80;;;4.80;99.90;;;;;;4937484;29;20481;-25
2021/01/21 03:50:13;;;;;;;12.93;10.87;;;4.80;99.90;;;;;;4954361;29;20463;-25
2021/01/21 03:52:42;;;;;;;15.43;11.20;;;4.80;99.90;;;;;;4938794;29;20560;-25
2021/01/21 03:55:14;;;;;;;12.57;10.27;;;4.90;99.90;;;;;;4953572;28;21079;-25
2021/01/21 03:57:47;;;;;;;12.17;10.57;;;4.80;99.90;;;;;;4937390;29;20462;-25
2021/01/21 04:00:25;;;;;;;16.40;11.07;;;4.80;99.90;;;;;;4953431;29;20444;-25
2021/01/21 04:02:54;;;;;;;15.10;11.03;;;4.70;99.90;;;;;;4936675;29;20484;-25
2021/01/21 04:05:48;;;;;;;12.20;11.00;;;4.70;99.90;;;;;;4949790;28;20904;-25
2021/01/21 04:08:21;;;;;;;14.63;10.57;;;4.70;99.90;;;;;;4955712;29;20919;-25
2021/01/21 04:10:55;;;;;;;14.07;11.07;;;4.60;99.90;;;;;;4955208;29;20446;-25
2021/01/21 04:13:36;;;;;;;14.20;10.97;;;4.60;99.90;;;;;;4938243;29;20450;-25
2021/01/21 04:16:11;;;;;;;11.43;9.50;;;4.60;99.90;;;;;;4936667;29;20548;-25
2021/01/21 04:18:39;;;;;;;12.80;10.40;;;4.60;99.90;;;;;;4937071;29;20435;-25
2021/01/21 04:21:09;;;;;;;10.67;9.43;;;4.50;99.90;;;;;;4938403;29;20536;-25
2021/01/21 04:23:54;;;;;;;9.90;8.80;;;4.50;99.90;;;;;;4953356;29;20434;-25
2021/01/21 04:26:33;;;;;;;9.70;8.70;;;4.50;99.90;;;;;;4944686;29;20474;-25
2021/01/21 04:29:02;;;;;;;11.43;8.90;;;4.60;99.90;;;;;;4935498;29;20498;-25
2021/01/21 04:31:31;;;;;;;8.83;7.73;;;4.70;99.90;;;;;;4934400;29;20446;-25
2021/01/21 04:34:07;;;;;;;9.40;8.13;;;4.70;99.90;;;;;;4952184;29;20916;-25
2021/01/21 04:36:36;;;;;;;6.77;6.17;;;4.70;99.90;;;;;;4950332;29;20461;-25
2021/01/21 04:39:06;;;;;;;6.37;5.83;;;4.80;99.90;;;;;;4950941;29;20557;-25
2021/01/21 04:41:37;;;;;;;4.83;4.53;;;5.20;99.90;;;;;;4951643;29;20471;-25
2021/01/21 04:44:24;;;;;;;3.10;2.90;;;5.80;99.90;;;;;;4952566;29;20453;-25
2021/01/21 04:47:01;;;;;;;4.83;4.50;;;6.40;99.90;;;;;;4952093;29;21077;-25
2021/01/21 04:49:41;;;;;;;5.23;4.77;;;7.10;99.90;;;;;;4952221;29;20541;-25
2021/01/21 04:52:13;;;;;;;4.60;4.30;;;7.50;99.90;;;;;;4935290;29;20455;-25
2021/01/21 04:54:43;;;;;;;4.43;4.23;;;7.70;99.90;;;;;;4935476;29;20450;-25
2021/01/21 04:57:21;;;;;;;4.37;4.23;;;7.90;99.70;;;;;;4935305;29;20454;-25
2021/01/21 04:59:56;;;;;;;4.67;4.47;;;8.10;98.70;;;;;;4952478;29;20461;-25
2021/01/21 05:02:43;;;;;;;6.30;5.70;;;8.20;98.10;;;;;;4952722;29;20458;-25
2021/01/21 05:05:37;;;;;;;9.33;8.53;;;8.40;98.90;;;;;;4951285;29;20572;-26
2021/01/21 05:08:10;;;;;;;6.80;6.30;;;8.30;99.90;;;;;;4950807;29;20501;-25
2021/01/21 05:10:43;;;;;;;7.37;7.00;;;8.00;99.90;;;;;;4950976;29;20489;-25
2021/01/21 05:13:21;;;;;;;6.10;5.73;;;7.70;99.90;;;;;;4949803;29;20434;-25
2021/01/21 05:16:22;;;;;;;5.83;5.43;;;7.40;99.90;;;;;;4949613;29;20454;-25
2021/01/21 05:19:11;;;;;;;6.80;6.30;;;7.30;99.90;;;;;;4949856;29;20466;-25
2021/01/21 05:22:00;;;;;;;14.90;13.50;;;7.30;99.90;;;;;;4950750;29;20466;-25
2021/01/21 05:24:55;;;;;;;6.63;6.30;;;7.40;99.90;;;;;;4949442;28;21079;-25
2021/01/21 05:27:29;;;;;;;6.47;6.00;;;7.40;99.90;;;;;;4948427;28;20485;-25
2021/01/21 05:30:10;;;;;;;6.47;6.07;;;7.40;99.90;;;;;;4948205;28;20497;-25
2021/01/21 05:32:38;;;;;;;6.00;5.70;;;7.40;99.90;;;;;;4949671;29;20449;-26
2021/01/21 05:35:28;;;;;;;8.10;7.50;;;7.30;99.90;;;;;;4933685;29;20450;-25
2021/01/21 05:37:58;;;;;;;9.63;8.83;;;7.40;99.90;;;;;;4948407;29;20846;-25
2021/01/21 05:40:55;;;;;;;7.27;6.87;;;7.50;99.90;;;;;;4946504;29;20470;-25
2021/01/21 05:43:49;;;;;;;5.80;5.40;;;7.50;99.90;;;;;;4950210;29;20480;-25
2021/01/21 05:46:27;;;;;;;4.70;4.50;;;7.20;99.90;;;;;;4952075;29;20470;-25
2021/01/21 05:48:55;;;;;;;6.30;6.00;;;7.20;99.90;;;;;;4935437;29;20951;-25
2021/01/21 05:51:29;;;;;;;5.07;4.87;;;7.20;99.90;;;;;;4951997;29;20549;-26
2021/01/21 05:54:00;;;;;;;7.17;6.80;;;7.30;99.90;;;;;;4948035;29;20454;-25
2021/01/21 05:56:39;;;;;;;6.33;5.73;;;7.40;99.90;;;;;;4930894;29;20809;-25
2021/01/21 05:59:17;;;;;;;26.27;24.10;;;7.50;99.90;;;;;;4947983;29;20438;-25
2021/01/21 06:01:53;;;;;;;7.60;7.13;;;7.40;99.90;;;;;;4943502;29;20481;-25
2021/01/21 06:04:29;;;;;;;7.40;6.80;;;7.40;99.90;;;;;;4929216;29;20616;-25
2021/01/21 06:06:56;;;;;;;7.80;7.27;;;7.40;99.90;;;;;;4944281;29;20497;-25
2021/01/21 06:09:29;;;;;;;10.30;9.10;;;7.40;99.90;;;;;;4946837;29;20547;-25
2021/01/21 06:12:01;;;;;;;8.50;7.80;;;7.50;99.90;;;;;;4944624;29;20439;-25
2021/01/21 06:14:32;;;;;;;28.03;18.43;;;7.50;99.90;;;;;;4944149;29;20534;-25
2021/01/21 06:17:00;;;;;;;11.53;8.93;;;7.50;99.90;;;;;;4943034;29;21214;-25
2021/01/21 06:19:47;;;;;;;74.20;39.40;;;7.60;99.90;;;;;;4942540;29;20959;-25
2021/01/21 06:22:20;;;;;;;12.83;10.13;;;7.80;99.90;;;;;;4940149;29;20653;-25
2021/01/21 06:24:59;;;;;;;7.27;6.77;;;8.00;99.90;;;;;;4940757;29;20442;-25
2021/01/21 06:27:27;;;;;;;22.13;16.13;;;8.10;99.90;;;;;;4940337;29;20470;-25
2021/01/21 06:29:56;;;;;;;20.03;15.53;;;8.20;99.90;;;;;;4941601;29;20496;-25
2021/01/21 06:32:28;;;;;;;6.20;5.80;;;8.30;99.90;;;;;;4929171;29;20513;-25
2021/01/21 06:35:02;;;;;;;5.63;5.10;;;8.30;99.90;;;;;;4938705;29;20458;-25
2021/01/21 06:37:32;;;;;;;7.37;6.97;;;8.30;99.90;;;;;;4940309;29;20442;-25
2021/01/21 06:40:05;;;;;;;10.70;9.80;;;8.30;99.90;;;;;;4938697;29;20849;-25
2021/01/21 06:42:35;;;;;;;11.60;10.50;;;8.30;99.90;;;;;;4938883;29;20449;-25
2021/01/21 06:45:04;;;;;;;9.23;8.53;;;8.30;99.90;;;;;;4939284;28;20442;-25
2021/01/21 06:47:32;;;;;;;11.57;10.57;;;8.40;99.90;;;;;;4935761;29;20548;-25
2021/01/21 06:50:02;;;;;;;6.20;5.77;;;8.40;99.90;;;;;;4933804;29;21048;-25
2021/01/21 06:52:32;;;;;;;5.93;5.63;;;8.40;99.90;;;;;;4935936;28;20553;-25
2021/01/21 06:55:02;;;;;;;11.27;10.13;;;8.40;99.20;;;;;;4935040;29;20469;-25
2021/01/21 06:57:46;;;;;;;8.60;7.83;;;8.50;98.60;;;;;;4930958;29;20508;-25
2021/01/21 07:00:16;;;;;;;6.03;5.73;;;8.60;98.60;;;;;;4935232;29;20481;-25
2021/01/21 07:02:45;;;;;;;6.30;5.87;;;8.60;97.50;;;;;;4931959;29;20446;-25
2021/01/21 07:05:17;;;;;;;5.07;4.87;;;8.70;97.10;;;;;;4934174;29;20445;-25
2021/01/21 07:08:06;;;;;;;4.57;4.47;;;8.80;96.30;;;;;;4932757;29;20484;-25
2021/01/21 07:10:41;;;;;;;4.83;4.43;;;9.00;95.50;;;;;;4925009;29;20454;-25
2021/01/21 07:13:12;;;;;;;5.33;5.13;;;9.10;95.00;;;;;;4930802;28;20461;-25
2021/01/21 07:15:45;;;;;;;5.00;4.90;;;9.20;94.50;;;;;;4929301;29;20458;-25
2021/01/21 07:18:18;;;;;;;4.33;4.23;;;9.30;94.00;;;;;;4928877;29;21302;-25
2021/01/21 07:21:08;;;;;;;5.70;5.30;;;9.50;93.30;;;;;;4927167;29;20509;-25
2021/01/21 07:23:42;;;;;;;5.20;4.97;;;9.60;93.00;;;;;;4923351;29;20549;-25
2021/01/21 07:26:30;;;;;;;5.00;4.87;;;9.60;92.50;;;;;;4924098;28;20474;-25
2021/01/21 07:29:10;;;;;;;5.50;5.30;;;9.70;92.10;;;;;;4923054;29;20466;-25
2021/01/21 07:32:11;;;;;;;4.70;4.60;;;9.90;92.30;;;;;;4928612;29;20446;-25
2021/01/21 07:34:44;;;;;;;5.57;5.37;;;9.90;91.80;;;;;;4924725;29;20458;-25
2021/01/21 07:37:28;;;;;;;4.60;4.50;;;9.90;91.70;;;;;;4927236;29;20438;-26
2021/01/21 07:40:02;;;;;;;4.70;4.60;;;9.90;91.40;;;;;;4922235;29;20926;-26
2021/01/21 07:42:49;;;;;;;4.90;4.80;;;10.00;90.50;;;;;;4923903;29;20457;-25
2021/01/21 07:45:29;;;;;;;5.87;5.63;;;10.10;90.40;;;;;;4925476;29;20446;-25
2021/01/21 07:48:17;;;;;;;6.30;6.10;;;10.20;90.30;;;;;;4924637;29;20481;-26
2021/01/21 07:50:44;;;;;;;6.60;6.30;;;10.30;90.10;;;;;;4912570;28;21025;-26
2021/01/21 07:53:34;;;;;;;5.97;5.53;;;10.40;89.20;;;;;;4929196;28;20458;-26
2021/01/21 07:56:05;;;;;;;4.90;4.80;;;10.40;89.40;;;;;;4923386;28;20843;-26
2021/01/21 07:58:36;;;;;;;5.23;4.97;;;10.50;89.40;;;;;;4946365;28;21131;-26
2021/01/21 08:01:09;;;;;;;4.87;4.63;;;10.60;89.70;;;;;;4932366;28;20450;-26
2021/01/21 08:03:39;;;;;;;4.80;4.70;;;10.70;89.40;;;;;;4931209;29;20588;-26
2021/01/21 08:06:11;;;;;;;4.60;4.50;;;10.70;89.80;;;;;;4928930;29;20977;-26
2021/01/21 08:08:39;;;;;;;4.97;4.80;;;10.80;90.00;;;;;;4923611;29;20596;-26
2021/01/21 08:11:10;;;;;;;5.13;4.73;;;10.80;89.90;;;;;;4928611;29;20470;-26
2021/01/21 08:13:38;;;;;;;6.83;6.40;;;10.90;90.10;;;;;;4926215;29;20728;-26
2021/01/21 08:16:08;;;;;;;6.17;5.97;;;11.00;90.40;;;;;;4926239;29;20896;-26
2021/01/21 08:18:36;;;;;;;5.03;4.83;;;10.90;90.40;;;;;;4922226;29;20553;-26
2021/01/21 08:21:25;;;;;;;6.40;6.10;;;11.00;90.60;;;;;;4927121;29;20524;-25
2021/01/21 08:24:01;;;;;;;5.30;5.00;;;11.00;90.60;;;;;;4926985;29;20454;-26
2021/01/21 08:26:31;;;;;;;6.17;5.77;;;11.00;90.80;;;;;;4926717;29;20501;-26
2021/01/21 08:29:08;;;;;;;10.60;9.70;;;11.10;90.70;;;;;;4923776;29;20912;-26
2021/01/21 08:31:50;;;;;;;6.27;5.77;;;11.00;90.90;;;;;;4919257;29;20584;-26
2021/01/21 08:34:21;;;;;;;8.40;5.17;;;11.00;91.00;;;;;;4923560;29;20453;-26
2021/01/21 08:36:49;;;;;;;7.27;6.60;;;11.00;91.00;;;;;;4924811;29;20565;-25
2021/01/21 08:39:18;;;;;;;4.97;4.73;;;10.90;91.10;;;;;;4928363;29;20556;-26
2021/01/21 08:41:54;;;;;;;7.00;6.40;;;11.00;91.30;;;;;;4924753;29;20517;-26
2021/01/21 08:44:22;;;;;;;4.47;4.27;;;11.00;91.40;;;;;;4925311;29;20446;-26
2021/01/21 08:46:59;;;;;;;4.53;4.13;;;11.10;91.40;;;;;;4921285;29;20509;-26
2021/01/21 08:49:28;;;;;;;3.73;3.63;;;11.40;91.50;;;;;;4924412;29;20464;-26
2021/01/21 08:52:06;;;;;;;3.97;3.77;;;11.70;91.10;;;;;;4926424;29;20461;-26
2021/01/21 08:54:35;;;;;;;3.80;3.70;;;12.00;90.80;;;;;;4928001;29;20454;-26
2021/01/21 08:57:09;;;;;;;4.00;3.90;;;12.20;90.30;;;;;;4928241;29;20796;-26
2021/01/21 08:59:38;;;;;;;4.80;4.50;;;12.50;90.20;;;;;;4927502;29;20468;-26
2021/01/21 09:02:06;;;;;;;4.87;4.57;;;12.80;90.10;;;;;;4922898;28;20817;-26
2021/01/21 09:04:36;;;;;;;4.60;4.30;;;12.90;89.50;;;;;;4920933;28;20470;-26
2021/01/21 09:07:06;;;;;;;3.00;2.90;;;13.10;88.90;;;;;;4923202;29;20473;-26
2021/01/21 09:09:39;;;;;;;3.80;3.70;;;13.00;89.10;;;;;;4925881;28;20516;-26
2021/01/21 09:12:17;;;;;;;3.10;3.00;;;12.90;89.60;;;;;;4923711;29;20572;-26
2021/01/21 09:14:59;;;;;;;3.40;3.30;;;12.90;90.10;;;;;;4924478;29;20759;-26
2021/01/21 09:17:28;;;;;;;3.60;3.50;;;12.90;90.30;;;;;;4925235;29;20975;-26
2021/01/21 09:19:55;;;;;;;3.30;3.20;;;12.80;90.50;;;;;;4928165;29;20930;-26
2021/01/21 09:22:25;;;;;;;3.70;3.60;;;12.70;90.90;;;;;;4925798;29;20797;-26
2021/01/21 09:25:03;;;;;;;3.40;3.30;;;12.70;91.10;;;;;;4926840;29;20476;-26
2021/01/21 09:27:33;;;;;;;3.50;3.40;;;12.70;91.60;;;;;;4917403;29;20815;-26
2021/01/21 09:30:02;;;;;;;3.10;3.00;;;12.90;91.80;;;;;;4922894;29;20446;-26
2021/01/21 09:32:31;;;;;;;3.33;3.23;;;13.00;91.60;;;;;;4923728;29;20513;-26
2021/01/21 09:35:01;;;;;;;3.43;3.33;;;13.10;91.70;;;;;;4922133;29;20462;-26
2021/01/21 09:37:30;;;;;;;3.17;3.07;;;13.20;91.70;;;;;;4925751;29;20848;-26
2021/01/21 09:39:58;;;;;;;3.20;3.10;;;13.40;91.70;;;;;;4924598;29;20476;-26
2021/01/21 09:42:25;;;;;;;2.90;2.80;;;13.50;91.50;;;;;;4922284;29;20453;-26
2021/01/21 09:44:51;;;;;;;2.83;2.83;;;13.60;91.40;;;;;;4924131;29;20455;-26
2021/01/21 09:47:19;;;;;;;3.30;3.20;;;13.50;91.50;;;;;;4925604;29;20502;-26
2021/01/21 09:49:46;;;;;;;6.03;5.53;;;13.30;91.60;;;;;;4923090;29;20460;-26
2021/01/21 09:52:13;;;;;;;4.87;4.57;;;13.20;91.90;;;;;;4925369;28;20485;-26
2021/01/21 09:54:41;;;;;;;6.30;5.70;;;13.20;92.00;;;;;;4929120;29;20463;-26
2021/01/21 09:57:09;;;;;;;4.17;3.83;;;13.20;92.20;;;;;;4927218;29;20891;-26
2021/01/21 09:59:35;;;;;;;4.20;4.00;;;13.30;92.20;;;;;;4922297;29;20494;-26
2021/01/21 10:02:03;;;;;;;3.37;3.27;;;13.40;92.20;;;;;;4924747;29;20546;-26
2021/01/21 10:04:29;;;;;;;3.50;3.40;;;13.50;92.10;;;;;;4945583;28;20540;-26
2021/01/21 10:06:56;;;;;;;4.37;4.07;;;13.40;92.10;;;;;;4941177;28;20469;-26
2021/01/21 10:09:23;;;;;;;4.83;4.53;;;13.30;92.30;;;;;;4942286;28;21289;-26
2021/01/21 10:11:50;;;;;;;4.07;3.87;;;13.30;92.50;;;;;;4927524;28;20514;-26
2021/01/21 10:14:18;;;;;;;5.50;5.20;;;13.10;92.50;;;;;;4923396;29;20565;-26
2021/01/21 10:16:45;;;;;;;5.70;5.30;;;13.10;92.80;;;;;;4923183;29;20450;-26
2021/01/21 10:19:12;;;;;;;3.27;3.17;;;13.10;92.90;;;;;;4923500;29;20802;-26
2021/01/21 10:21:39;;;;;;;3.33;3.23;;;13.10;92.90;;;;;;4921769;28;20513;-25
2021/01/21 10:24:07;;;;;;;3.60;3.50;;;13.00;92.90;;;;;;4923655;29;20892;-26
2021/01/21 10:26:33;;;;;;;4.20;4.00;;;12.90;93.10;;;;;;4922002;29;20525;-26
2021/01/21 10:29:00;;;;;;;5.43;5.03;;;12.80;93.20;;;;;;4920934;29;20466;-26
2021/01/21 10:31:28;;;;;;;5.00;4.63;;;12.70;93.20;;;;;;4912411;29;20466;-26
2021/01/21 10:33:54;;;;;;;3.23;3.20;;;12.50;93.30;;;;;;4921020;28;20748;-26
2021/01/21 10:36:21;;;;;;;3.50;3.40;;;12.50;93.30;;;;;;4918847;29;20998;-26
2021/01/21 10:38:49;;;;;;;3.40;3.30;;;12.50;93.30;;;;;;4916568;29;20454;-27
2021/01/21 10:41:16;;;;;;;4.00;3.70;;;12.50;93.20;;;;;;4919701;29;20536;-26
2021/01/21 10:43:42;;;;;;;7.17;6.57;;;12.70;93.20;;;;;;4918601;29;20593;-26
2021/01/21 10:46:09;;;;;;;3.77;3.67;;;12.80;92.90;;;;;;4918506;29;20572;-26
2021/01/21 10:48:37;;;;;;;4.33;4.13;;;13.00;92.60;;;;;;4922575;29;20737;-26
2021/01/21 10:51:04;;;;;;;6.20;5.70;;;13.20;92.30;;;;;;4924143;29;20735;-27
2021/01/21 10:53:31;;;;;;;3.30;3.10;;;13.40;92.20;;;;;;4923506;29;20468;-26
2021/01/21 10:55:58;;;;;;;4.20;3.63;;;13.40;91.90;;;;;;4920130;29;20450;-26
2021/01/21 10:58:24;;;;;;;3.30;3.20;;;13.40;92.00;;;;;;4914408;29;20537;-26
2021/01/21 11:00:52;;;;;;;3.80;3.67;;;13.40;91.90;;;;;;4905683;29;20608;-26
2021/01/21 11:03:18;;;;;;;3.10;3.00;;;13.40;92.00;;;;;;4908492;29;20450;-26
2021/01/21 11:05:46;;;;;;;3.47;3.27;;;13.40;91.90;;;;;;4901555;29;20468;-26
2021/01/21 11:08:13;;;;;;;3.67;3.57;;;13.60;91.90;;;;;;4924866;28;20491;-26
2021/01/21 11:10:40;;;;;;;4.90;4.60;;;14.00;91.70;;;;;;4924859;29;20457;-26
2021/01/21 11:13:08;;;;;;;5.50;5.20;;;14.40;91.00;;;;;;4926101;29;20493;-26
2021/01/21 11:15:35;;;;;;;4.47;4.07;;;14.60;90.90;;;;;;4920332;29;21359;-26
2021/01/21 11:18:02;;;;;;;4.07;3.87;;;14.90;90.40;;;;;;4921659;29;20466;-26
2021/01/21 11:20:34;;;;;;;4.17;3.97;;;14.90;90.10;;;;;;4924080;29;20453;-26
2021/01/21 11:23:02;;;;;;;3.47;3.37;;;14.80;90.00;;;;;;4921988;29;20592;-26
2021/01/21 11:25:28;;;;;;;4.83;4.53;;;14.90;90.20;;;;;;4925052;29;20560;-26
2021/01/21 11:27:55;;;;;;;5.30;5.00;;;14.80;90.20;;;;;;4920830;29;20561;-26
2021/01/21 11:30:23;;;;;;;3.57;3.40;;;14.90;90.10;;;;;;4922880;29;20460;-26
2021/01/21 11:32:50;;;;;;;3.73;3.53;;;14.80;89.80;;;;;;4923594;28;20457;-26
2021/01/21 11:35:16;;;;;;;3.30;3.20;;;14.80;89.90;;;;;;4924915;29;20449;-26
2021/01/21 11:37:43;;;;;;;6.20;5.80;;;14.70;90.10;;;;;;4926709;29;20553;-26
2021/01/21 11:40:12;;;;;;;2.90;2.90;;;14.70;90.10;;;;;;4925997;29;20443;-26
2021/01/21 11:42:38;;;;;;;3.93;3.70;;;14.80;89.70;;;;;;4925930;29;21119;-26
2021/01/21 11:45:06;;;;;;;3.27;3.17;;;15.00;89.70;;;;;;4927339;29;20509;-26
2021/01/21 11:47:33;;;;;;;3.90;3.70;;;15.10;89.10;;;;;;4930377;29;20517;-26
2021/01/21 11:50:00;;;;;;;3.70;3.50;;;15.20;88.70;;;;;;4925081;29;20452;-26
2021/01/21 11:52:28;;;;;;;4.00;3.83;;;15.40;88.10;;;;;;4926964;28;20469;-26
2021/01/21 11:54:55;;;;;;;4.20;3.97;;;15.60;87.80;;;;;;4927995;29;20452;-26
2021/01/21 11:57:23;;;;;;;4.97;4.67;;;15.70;87.10;;;;;;4928482;29;20557;-26
2021/01/21 11:59:49;;;;;;;5.67;5.17;;;15.80;87.00;;;;;;4926748;29;21321;-26
2021/01/21 12:02:16;;;;;;;13.60;10.80;;;15.70;86.60;;;;;;4927328;29;20497;-26
2021/01/21 12:04:43;;;;;;;6.77;6.17;;;15.30;87.40;;;;;;4926801;29;20951;-26
2021/01/21 12:07:09;;;;;;;6.13;5.63;;;15.20;87.60;;;;;;4906662;29;20492;-26
2021/01/21 12:09:36;;;;;;;5.60;5.30;;;15.20;87.80;;;;;;4931901;29;20779;-26
2021/01/21 12:12:03;;;;;;;9.90;8.40;;;15.20;87.70;;;;;;4926784;29;20467;-26
2021/01/21 12:14:33;;;;;;;4.53;4.33;;;15.10;88.20;;;;;;4924853;29;20466;-26
2021/01/21 12:16:59;;;;;;;9.87;8.90;;;15.20;88.20;;;;;;4922362;29;20509;-26
2021/01/21 12:19:28;;;;;;;6.50;6.00;;;15.10;88.00;;;;;;4926482;29;20450;-26
2021/01/21 12:21:55;;;;;;;5.03;4.80;;;15.10;88.50;;;;;;4923802;29;20572;-26
2021/01/21 12:24:21;;;;;;;5.27;4.97;;;15.10;88.30;;;;;;4925150;29;20462;-26
2021/01/21 12:26:48;;;;;;;5.53;5.23;;;15.10;88.60;;;;;;4926676;29;20545;-26
2021/01/21 12:29:16;;;;;;;4.70;4.40;;;15.10;88.60;;;;;;4928279;29;20468;-26
2021/01/21 12:31:43;;;;;;;6.07;5.70;;;15.10;88.50;;;;;;4926688;29;20477;-26
2021/01/21 12:34:10;;;;;;;4.17;3.97;;;15.10;88.50;;;;;;4921700;29;20449;-26
2021/01/21 12:36:37;;;;;;;4.70;4.40;;;15.10;88.50;;;;;;4922873;29;20857;-26
2021/01/21 12:39:04;;;;;;;6.33;5.77;;;15.10;88.40;;;;;;4902445;29;21042;-27
2021/01/21 12:41:31;;;;;;;3.80;3.70;;;15.20;88.60;;;;;;4914504;29;20963;-27
2021/01/21 12:43:58;;;;;;;3.70;3.50;;;15.30;88.10;;;;;;4912834;28;20508;-26
2021/01/21 12:46:28;;;;;;;6.30;3.60;;;15.50;88.10;;;;;;4913620;29;20903;-26
2021/01/21 12:48:56;;;;;;;4.93;4.67;;;15.70;87.50;;;;;;4922980;29;20449;-26
2021/01/21 12:51:23;;;;;;;4.13;4.03;;;15.80;87.20;;;;;;4923113;29;20466;-26
2021/01/21 12:53:49;;;;;;;4.70;4.50;;;15.80;86.90;;;;;;4916079;29;20758;-26
2021/01/21 12:56:17;;;;;;;4.10;4.00;;;15.70;87.30;;;;;;4918710;29;21045;-26
2021/01/21 12:58:43;;;;;;;4.30;4.20;;;15.60;87.60;;;;;;4926121;29;20472;-26
2021/01/21 13:01:10;;;;;;;4.20;4.10;;;15.30;88.20;;;;;;4915845;29;20691;-26
2021/01/21 13:03:40;;;;;;;4.20;4.00;;;15.10;88.50;;;;;;4916446;29;20446;-26
2021/01/21 13:06:08;;;;;;;4.07;3.77;;;15.00;88.80;;;;;;4916279;29;20493;-26
2021/01/21 13:08:35;;;;;;;3.50;3.40;;;15.00;89.20;;;;;;4916421;29;20828;-26
2021/01/21 13:11:02;;;;;;;3.93;3.73;;;15.10;89.00;;;;;;4918427;29;20446;-26
2021/01/21 13:13:32;;;;;;;4.20;3.80;;;15.20;89.30;;;;;;4914141;29;20552;-26